sensor_id;sensor_type;location;lat;lon;timestamp;P1;durP1;ratioP1;P2;durP2;ratioP2
68870;SDS011;55906;52.278;6.808;2023-02-28T00:00:50;8.85;;;6.53;;
68870;SDS011;55906;52.278;6.808;2023-02-28T00:03:18;8.10;;;5.60;;
68870;SDS011;55906;52.278;6.808;2023-02-28T00:05:45;8.00;;;6.15;;
68870;SDS011;55906;52.278;6.808;2023-02-28T00:08:12;8.80;;;6.82;;
68870;SDS011;55906;52.278;6.808;2023-02-28T00:10:38;7.50;;;5.93;;
68870;SDS011;55906;52.278;6.808;2023-02-28T00:13:05;8.18;;;6.70;;
68870;SDS011;55906;52.278;6.808;2023-02-28T00:15:33;10.60;;;6.32;;
68870;SDS011;55906;52.278;6.808;2023-02-28T00:18:00;8.87;;;7.60;;
68870;SDS011;55906;52.278;6.808;2023-02-28T00:20:28;8.30;;;6.50;;
68870;SDS011;55906;52.278;6.808;2023-02-28T00:22:55;10.30;;;7.47;;
68870;SDS011;55906;52.278;6.808;2023-02-28T00:25:23;10.10;;;7.60;;
68870;SDS011;55906;52.278;6.808;2023-02-28T00:27:51;7.97;;;6.22;;
68870;SDS011;55906;52.278;6.808;2023-02-28T00:30:18;7.55;;;6.53;;
68870;SDS011;55906;52.278;6.808;2023-02-28T00:32:46;8.98;;;7.05;;
68870;SDS011;55906;52.278;6.808;2023-02-28T00:35:13;8.37;;;6.80;;
68870;SDS011;55906;52.278;6.808;2023-02-28T00:37:42;8.13;;;6.40;;
68870;SDS011;55906;52.278;6.808;2023-02-28T00:40:09;8.55;;;5.97;;
68870;SDS011;55906;52.278;6.808;2023-02-28T00:42:37;7.03;;;5.83;;
68870;SDS011;55906;52.278;6.808;2023-02-28T00:45:04;9.57;;;5.65;;
68870;SDS011;55906;52.278;6.808;2023-02-28T00:47:32;6.53;;;5.70;;
68870;SDS011;55906;52.278;6.808;2023-02-28T00:49:59;8.43;;;5.95;;
68870;SDS011;55906;52.278;6.808;2023-02-28T00:52:27;8.40;;;5.80;;
68870;SDS011;55906;52.278;6.808;2023-02-28T00:54:55;7.85;;;6.30;;
68870;SDS011;55906;52.278;6.808;2023-02-28T00:57:21;9.57;;;6.70;;
68870;SDS011;55906;52.278;6.808;2023-02-28T00:59:48;7.93;;;5.83;;
68870;SDS011;55906;52.278;6.808;2023-02-28T01:02:14;8.48;;;6.60;;
68870;SDS011;55906;52.278;6.808;2023-02-28T01:04:43;7.90;;;5.80;;
68870;SDS011;55906;52.278;6.808;2023-02-28T01:07:09;7.87;;;6.07;;
68870;SDS011;55906;52.278;6.808;2023-02-28T01:09:36;8.82;;;5.40;;
68870;SDS011;55906;52.278;6.808;2023-02-28T01:12:04;8.77;;;6.03;;
68870;SDS011;55906;52.278;6.808;2023-02-28T01:14:32;9.18;;;5.60;;
68870;SDS011;55906;52.278;6.808;2023-02-28T01:16:59;7.40;;;5.75;;
68870;SDS011;55906;52.278;6.808;2023-02-28T01:19:26;6.75;;;5.30;;
68870;SDS011;55906;52.278;6.808;2023-02-28T01:21:53;7.30;;;5.80;;
68870;SDS011;55906;52.278;6.808;2023-02-28T01:24:20;6.77;;;5.00;;
68870;SDS011;55906;52.278;6.808;2023-02-28T01:26:46;8.23;;;6.70;;
68870;SDS011;55906;52.278;6.808;2023-02-28T01:29:14;8.55;;;5.20;;
68870;SDS011;55906;52.278;6.808;2023-02-28T01:31:41;6.80;;;5.53;;
68870;SDS011;55906;52.278;6.808;2023-02-28T01:34:07;6.65;;;5.10;;
68870;SDS011;55906;52.278;6.808;2023-02-28T01:36:34;7.65;;;5.18;;
68870;SDS011;55906;52.278;6.808;2023-02-28T01:39:01;7.20;;;5.97;;
68870;SDS011;55906;52.278;6.808;2023-02-28T01:41:28;6.95;;;6.05;;
68870;SDS011;55906;52.278;6.808;2023-02-28T01:43:58;8.55;;;5.35;;
68870;SDS011;55906;52.278;6.808;2023-02-28T01:46:30;7.85;;;6.15;;
68870;SDS011;55906;52.278;6.808;2023-02-28T01:49:00;7.97;;;5.97;;
68870;SDS011;55906;52.278;6.808;2023-02-28T01:51:31;7.63;;;5.35;;
68870;SDS011;55906;52.278;6.808;2023-02-28T01:54:04;6.93;;;5.55;;
68870;SDS011;55906;52.278;6.808;2023-02-28T01:56:38;8.87;;;6.13;;
68870;SDS011;55906;52.278;6.808;2023-02-28T01:59:08;7.07;;;5.53;;
68870;SDS011;55906;52.278;6.808;2023-02-28T02:01:37;10.80;;;5.97;;
68870;SDS011;55906;52.278;6.808;2023-02-28T02:04:04;7.57;;;6.22;;
68870;SDS011;55906;52.278;6.808;2023-02-28T02:06:34;8.77;;;6.47;;
68870;SDS011;55906;52.278;6.808;2023-02-28T02:09:03;7.05;;;5.47;;
68870;SDS011;55906;52.278;6.808;2023-02-28T02:11:31;8.48;;;5.78;;
68870;SDS011;55906;52.278;6.808;2023-02-28T02:17:06;7.28;;;5.70;;
68870;SDS011;55906;52.278;6.808;2023-02-28T02:20:00;8.32;;;6.00;;
68870;SDS011;55906;52.278;6.808;2023-02-28T02:25:53;6.97;;;5.65;;
68870;SDS011;55906;52.278;6.808;2023-02-28T02:28:34;8.68;;;5.55;;
68870;SDS011;55906;52.278;6.808;2023-02-28T02:31:26;7.20;;;5.65;;
68870;SDS011;55906;52.278;6.808;2023-02-28T02:34:09;8.07;;;5.63;;
68870;SDS011;55906;52.278;6.808;2023-02-28T02:36:51;8.35;;;6.10;;
68870;SDS011;55906;52.278;6.808;2023-02-28T02:39:24;7.88;;;5.88;;
68870;SDS011;55906;52.278;6.808;2023-02-28T02:41:58;7.07;;;6.10;;
68870;SDS011;55906;52.278;6.808;2023-02-28T02:44:29;7.43;;;6.10;;
68870;SDS011;55906;52.278;6.808;2023-02-28T02:47:03;7.57;;;6.30;;
68870;SDS011;55906;52.278;6.808;2023-02-28T02:49:37;8.53;;;6.47;;
68870;SDS011;55906;52.278;6.808;2023-02-28T02:52:07;9.13;;;6.63;;
68870;SDS011;55906;52.278;6.808;2023-02-28T02:54:38;9.02;;;7.45;;
68870;SDS011;55906;52.278;6.808;2023-02-28T02:57:09;8.45;;;6.10;;
68870;SDS011;55906;52.278;6.808;2023-02-28T02:59:41;7.90;;;5.88;;
68870;SDS011;55906;52.278;6.808;2023-02-28T03:02:10;11.13;;;7.00;;
68870;SDS011;55906;52.278;6.808;2023-02-28T03:04:42;8.85;;;6.75;;
68870;SDS011;55906;52.278;6.808;2023-02-28T03:07:12;8.77;;;6.07;;
68870;SDS011;55906;52.278;6.808;2023-02-28T03:09:39;9.65;;;7.15;;
68870;SDS011;55906;52.278;6.808;2023-02-28T03:12:07;9.80;;;6.68;;
68870;SDS011;55906;52.278;6.808;2023-02-28T03:14:40;9.00;;;6.87;;
68870;SDS011;55906;52.278;6.808;2023-02-28T03:17:19;7.80;;;6.40;;
68870;SDS011;55906;52.278;6.808;2023-02-28T03:19:58;9.13;;;6.57;;
68870;SDS011;55906;52.278;6.808;2023-02-28T03:22:40;7.85;;;6.10;;
68870;SDS011;55906;52.278;6.808;2023-02-28T03:25:18;9.23;;;5.95;;
68870;SDS011;55906;52.278;6.808;2023-02-28T03:27:52;7.22;;;6.00;;
68870;SDS011;55906;52.278;6.808;2023-02-28T03:30:27;11.27;;;5.85;;
68870;SDS011;55906;52.278;6.808;2023-02-28T03:33:00;7.27;;;6.20;;
68870;SDS011;55906;52.278;6.808;2023-02-28T03:35:36;8.07;;;6.28;;
68870;SDS011;55906;52.278;6.808;2023-02-28T03:38:07;7.10;;;6.03;;
68870;SDS011;55906;52.278;6.808;2023-02-28T03:40:39;7.80;;;6.17;;
68870;SDS011;55906;52.278;6.808;2023-02-28T03:43:09;7.55;;;5.53;;
68870;SDS011;55906;52.278;6.808;2023-02-28T03:45:40;8.70;;;6.03;;
68870;SDS011;55906;52.278;6.808;2023-02-28T03:48:11;6.68;;;5.88;;
68870;SDS011;55906;52.278;6.808;2023-02-28T03:50:41;6.78;;;5.53;;
68870;SDS011;55906;52.278;6.808;2023-02-28T03:53:11;7.70;;;5.75;;
68870;SDS011;55906;52.278;6.808;2023-02-28T03:55:41;8.32;;;6.93;;
68870;SDS011;55906;52.278;6.808;2023-02-28T03:58:12;8.30;;;6.13;;
68870;SDS011;55906;52.278;6.808;2023-02-28T04:00:46;8.88;;;6.47;;
68870;SDS011;55906;52.278;6.808;2023-02-28T04:03:15;8.80;;;7.28;;
68870;SDS011;55906;52.278;6.808;2023-02-28T04:05:48;8.63;;;7.67;;
68870;SDS011;55906;52.278;6.808;2023-02-28T04:08:17;9.10;;;7.13;;
68870;SDS011;55906;52.278;6.808;2023-02-28T04:10:45;9.20;;;6.80;;
68870;SDS011;55906;52.278;6.808;2023-02-28T04:13:16;8.73;;;6.85;;
68870;SDS011;55906;52.278;6.808;2023-02-28T04:15:43;9.48;;;7.72;;
68870;SDS011;55906;52.278;6.808;2023-02-28T04:18:09;10.60;;;7.30;;
68870;SDS011;55906;52.278;6.808;2023-02-28T04:20:36;9.90;;;7.68;;
68870;SDS011;55906;52.278;6.808;2023-02-28T04:23:05;9.57;;;7.57;;
68870;SDS011;55906;52.278;6.808;2023-02-28T04:25:32;9.10;;;7.47;;
68870;SDS011;55906;52.278;6.808;2023-02-28T04:27:58;9.50;;;7.28;;
68870;SDS011;55906;52.278;6.808;2023-02-28T04:30:25;8.83;;;7.60;;
68870;SDS011;55906;52.278;6.808;2023-02-28T04:32:51;9.80;;;7.45;;
68870;SDS011;55906;52.278;6.808;2023-02-28T04:35:18;8.75;;;7.68;;
68870;SDS011;55906;52.278;6.808;2023-02-28T04:37:45;11.88;;;8.55;;
68870;SDS011;55906;52.278;6.808;2023-02-28T04:40:13;10.98;;;8.45;;
68870;SDS011;55906;52.278;6.808;2023-02-28T04:42:39;10.20;;;8.75;;
68870;SDS011;55906;52.278;6.808;2023-02-28T04:45:07;10.57;;;7.93;;
68870;SDS011;55906;52.278;6.808;2023-02-28T04:47:35;9.80;;;7.43;;
68870;SDS011;55906;52.278;6.808;2023-02-28T04:50:02;8.30;;;6.93;;
68870;SDS011;55906;52.278;6.808;2023-02-28T04:52:28;10.73;;;7.78;;
68870;SDS011;55906;52.278;6.808;2023-02-28T04:54:55;10.03;;;7.83;;
68870;SDS011;55906;52.278;6.808;2023-02-28T04:57:23;9.25;;;7.30;;
68870;SDS011;55906;52.278;6.808;2023-02-28T04:59:50;8.35;;;7.05;;
68870;SDS011;55906;52.278;6.808;2023-02-28T05:02:16;11.63;;;7.32;;
68870;SDS011;55906;52.278;6.808;2023-02-28T05:04:43;12.55;;;7.63;;
68870;SDS011;55906;52.278;6.808;2023-02-28T05:07:09;9.05;;;7.00;;
68870;SDS011;55906;52.278;6.808;2023-02-28T05:09:36;8.00;;;6.00;;
68870;SDS011;55906;52.278;6.808;2023-02-28T05:12:02;8.43;;;7.43;;
68870;SDS011;55906;52.278;6.808;2023-02-28T05:14:30;10.23;;;7.53;;
68870;SDS011;55906;52.278;6.808;2023-02-28T05:16:57;10.18;;;7.10;;
68870;SDS011;55906;52.278;6.808;2023-02-28T05:19:24;8.60;;;6.53;;
68870;SDS011;55906;52.278;6.808;2023-02-28T05:21:51;7.78;;;6.45;;
68870;SDS011;55906;52.278;6.808;2023-02-28T05:24:20;8.57;;;6.55;;
68870;SDS011;55906;52.278;6.808;2023-02-28T05:26:48;8.43;;;6.72;;
68870;SDS011;55906;52.278;6.808;2023-02-28T05:29:15;9.57;;;6.07;;
68870;SDS011;55906;52.278;6.808;2023-02-28T05:31:43;9.15;;;6.78;;
68870;SDS011;55906;52.278;6.808;2023-02-28T05:34:10;11.32;;;7.00;;
68870;SDS011;55906;52.278;6.808;2023-02-28T05:36:37;7.97;;;6.70;;
68870;SDS011;55906;52.278;6.808;2023-02-28T05:39:05;8.55;;;7.10;;
68870;SDS011;55906;52.278;6.808;2023-02-28T05:41:32;8.00;;;5.85;;
68870;SDS011;55906;52.278;6.808;2023-02-28T05:43:59;8.20;;;6.73;;
68870;SDS011;55906;52.278;6.808;2023-02-28T05:46:26;8.70;;;6.65;;
68870;SDS011;55906;52.278;6.808;2023-02-28T05:48:54;8.15;;;6.50;;
68870;SDS011;55906;52.278;6.808;2023-02-28T05:51:22;10.45;;;7.88;;
68870;SDS011;55906;52.278;6.808;2023-02-28T05:53:49;10.70;;;6.95;;
68870;SDS011;55906;52.278;6.808;2023-02-28T05:56:16;10.05;;;7.53;;
68870;SDS011;55906;52.278;6.808;2023-02-28T05:58:42;7.70;;;6.55;;
68870;SDS011;55906;52.278;6.808;2023-02-28T06:01:30;9.50;;;6.17;;
68870;SDS011;55906;52.278;6.808;2023-02-28T06:04:00;8.25;;;6.68;;
68870;SDS011;55906;52.278;6.808;2023-02-28T06:06:27;8.73;;;6.25;;
68870;SDS011;55906;52.278;6.808;2023-02-28T06:08:54;8.57;;;6.60;;
68870;SDS011;55906;52.278;6.808;2023-02-28T06:11:21;9.32;;;7.20;;
68870;SDS011;55906;52.278;6.808;2023-02-28T06:13:52;8.15;;;6.55;;
68870;SDS011;55906;52.278;6.808;2023-02-28T06:16:19;8.77;;;6.80;;
68870;SDS011;55906;52.278;6.808;2023-02-28T06:18:46;16.33;;;7.60;;
68870;SDS011;55906;52.278;6.808;2023-02-28T06:21:14;9.32;;;7.60;;
68870;SDS011;55906;52.278;6.808;2023-02-28T06:23:41;8.02;;;6.57;;
68870;SDS011;55906;52.278;6.808;2023-02-28T06:26:07;10.17;;;7.07;;
68870;SDS011;55906;52.278;6.808;2023-02-28T06:28:34;9.93;;;7.53;;
68870;SDS011;55906;52.278;6.808;2023-02-28T06:31:06;10.75;;;7.57;;
68870;SDS011;55906;52.278;6.808;2023-02-28T06:33:33;10.40;;;7.20;;
68870;SDS011;55906;52.278;6.808;2023-02-28T06:36:00;10.95;;;8.20;;
68870;SDS011;55906;52.278;6.808;2023-02-28T06:38:28;9.43;;;6.38;;
68870;SDS011;55906;52.278;6.808;2023-02-28T06:40:55;9.23;;;7.40;;
68870;SDS011;55906;52.278;6.808;2023-02-28T06:43:23;10.50;;;8.05;;
68870;SDS011;55906;52.278;6.808;2023-02-28T06:45:50;11.07;;;7.95;;
68870;SDS011;55906;52.278;6.808;2023-02-28T06:48:16;9.80;;;7.32;;
68870;SDS011;55906;52.278;6.808;2023-02-28T06:50:44;10.13;;;7.60;;
68870;SDS011;55906;52.278;6.808;2023-02-28T06:53:10;12.00;;;8.32;;
68870;SDS011;55906;52.278;6.808;2023-02-28T06:55:38;10.18;;;8.48;;
68870;SDS011;55906;52.278;6.808;2023-02-28T06:58:05;11.50;;;8.67;;
68870;SDS011;55906;52.278;6.808;2023-02-28T07:00:39;10.02;;;8.02;;
68870;SDS011;55906;52.278;6.808;2023-02-28T07:03:06;9.88;;;7.25;;
68870;SDS011;55906;52.278;6.808;2023-02-28T07:05:34;10.52;;;7.68;;
68870;SDS011;55906;52.278;6.808;2023-02-28T07:08:01;10.80;;;8.90;;
68870;SDS011;55906;52.278;6.808;2023-02-28T07:10:28;8.25;;;6.80;;
68870;SDS011;55906;52.278;6.808;2023-02-28T07:12:56;8.95;;;7.25;;
68870;SDS011;55906;52.278;6.808;2023-02-28T07:15:22;8.27;;;6.47;;
68870;SDS011;55906;52.278;6.808;2023-02-28T07:17:49;7.85;;;6.18;;
68870;SDS011;55906;52.278;6.808;2023-02-28T07:20:16;7.63;;;6.78;;
68870;SDS011;55906;52.278;6.808;2023-02-28T07:22:43;8.30;;;6.60;;
68870;SDS011;55906;52.278;6.808;2023-02-28T07:25:09;9.20;;;5.88;;
68870;SDS011;55906;52.278;6.808;2023-02-28T07:27:36;8.07;;;6.57;;
68870;SDS011;55906;52.278;6.808;2023-02-28T07:30:05;9.52;;;6.95;;
68870;SDS011;55906;52.278;6.808;2023-02-28T07:32:33;8.20;;;6.53;;
68870;SDS011;55906;52.278;6.808;2023-02-28T07:35:03;10.57;;;7.18;;
68870;SDS011;55906;52.278;6.808;2023-02-28T07:37:29;8.93;;;6.50;;
68870;SDS011;55906;52.278;6.808;2023-02-28T07:40:01;8.97;;;6.20;;
68870;SDS011;55906;52.278;6.808;2023-02-28T07:42:31;8.93;;;6.00;;
68870;SDS011;55906;52.278;6.808;2023-02-28T07:44:58;10.43;;;6.00;;
68870;SDS011;55906;52.278;6.808;2023-02-28T07:47:27;10.37;;;6.30;;
68870;SDS011;55906;52.278;6.808;2023-02-28T07:49:55;7.75;;;5.90;;
68870;SDS011;55906;52.278;6.808;2023-02-28T07:52:22;11.23;;;5.55;;
68870;SDS011;55906;52.278;6.808;2023-02-28T07:54:49;6.88;;;5.15;;
68870;SDS011;55906;52.278;6.808;2023-02-28T07:57:16;7.18;;;5.10;;
68870;SDS011;55906;52.278;6.808;2023-02-28T07:59:43;5.80;;;4.57;;
68870;SDS011;55906;52.278;6.808;2023-02-28T08:02:10;5.97;;;4.90;;
68870;SDS011;55906;52.278;6.808;2023-02-28T08:04:41;6.32;;;4.60;;
68870;SDS011;55906;52.278;6.808;2023-02-28T08:07:07;6.38;;;4.60;;
68870;SDS011;55906;52.278;6.808;2023-02-28T08:09:38;5.82;;;3.95;;
68870;SDS011;55906;52.278;6.808;2023-02-28T08:12:04;7.03;;;4.10;;
68870;SDS011;55906;52.278;6.808;2023-02-28T08:14:31;5.28;;;3.33;;
68870;SDS011;55906;52.278;6.808;2023-02-28T08:16:58;4.70;;;3.40;;
68870;SDS011;55906;52.278;6.808;2023-02-28T08:19:25;5.38;;;3.20;;
68870;SDS011;55906;52.278;6.808;2023-02-28T08:21:53;4.80;;;3.15;;
68870;SDS011;55906;52.278;6.808;2023-02-28T08:24:19;4.70;;;3.03;;
68870;SDS011;55906;52.278;6.808;2023-02-28T08:26:46;5.68;;;3.80;;
68870;SDS011;55906;52.278;6.808;2023-02-28T08:29:13;5.47;;;3.30;;
68870;SDS011;55906;52.278;6.808;2023-02-28T08:31:39;4.72;;;2.97;;
68870;SDS011;55906;52.278;6.808;2023-02-28T08:34:07;5.03;;;3.00;;
68870;SDS011;55906;52.278;6.808;2023-02-28T08:36:34;4.23;;;2.73;;
68870;SDS011;55906;52.278;6.808;2023-02-28T08:39:02;4.70;;;2.80;;
68870;SDS011;55906;52.278;6.808;2023-02-28T08:41:30;4.25;;;2.60;;
68870;SDS011;55906;52.278;6.808;2023-02-28T08:43:56;4.00;;;2.60;;
68870;SDS011;55906;52.278;6.808;2023-02-28T08:46:23;4.35;;;3.00;;
68870;SDS011;55906;52.278;6.808;2023-02-28T08:48:51;4.80;;;3.00;;
68870;SDS011;55906;52.278;6.808;2023-02-28T08:51:19;4.95;;;3.17;;
68870;SDS011;55906;52.278;6.808;2023-02-28T08:53:51;4.20;;;2.85;;
68870;SDS011;55906;52.278;6.808;2023-02-28T08:56:20;4.40;;;3.05;;
68870;SDS011;55906;52.278;6.808;2023-02-28T08:58:47;3.80;;;2.60;;
68870;SDS011;55906;52.278;6.808;2023-02-28T09:01:16;4.70;;;3.13;;
68870;SDS011;55906;52.278;6.808;2023-02-28T09:03:44;4.68;;;3.13;;
68870;SDS011;55906;52.278;6.808;2023-02-28T09:06:13;5.07;;;3.38;;
68870;SDS011;55906;52.278;6.808;2023-02-28T09:08:41;5.43;;;3.85;;
68870;SDS011;55906;52.278;6.808;2023-02-28T09:11:08;7.18;;;4.72;;
68870;SDS011;55906;52.278;6.808;2023-02-28T09:13:37;6.07;;;4.53;;
68870;SDS011;55906;52.278;6.808;2023-02-28T09:16:05;4.55;;;3.10;;
68870;SDS011;55906;52.278;6.808;2023-02-28T09:18:33;4.97;;;3.28;;
68870;SDS011;55906;52.278;6.808;2023-02-28T09:21:02;4.93;;;3.30;;
68870;SDS011;55906;52.278;6.808;2023-02-28T09:23:29;5.88;;;3.35;;
68870;SDS011;55906;52.278;6.808;2023-02-28T09:25:55;3.87;;;2.53;;
68870;SDS011;55906;52.278;6.808;2023-02-28T09:28:22;4.05;;;2.75;;
68870;SDS011;55906;52.278;6.808;2023-02-28T09:30:51;4.82;;;3.65;;
68870;SDS011;55906;52.278;6.808;2023-02-28T09:33:19;4.80;;;3.00;;
68870;SDS011;55906;52.278;6.808;2023-02-28T09:35:48;4.22;;;2.70;;
68870;SDS011;55906;52.278;6.808;2023-02-28T09:38:15;4.20;;;2.63;;
68870;SDS011;55906;52.278;6.808;2023-02-28T09:40:45;5.07;;;2.10;;
68870;SDS011;55906;52.278;6.808;2023-02-28T09:43:15;3.63;;;2.05;;
68870;SDS011;55906;52.278;6.808;2023-02-28T09:45:46;3.83;;;2.17;;
68870;SDS011;55906;52.278;6.808;2023-02-28T09:48:17;5.40;;;2.78;;
68870;SDS011;55906;52.278;6.808;2023-02-28T09:50:48;3.67;;;2.10;;
68870;SDS011;55906;52.278;6.808;2023-02-28T09:53:19;3.65;;;2.45;;
68870;SDS011;55906;52.278;6.808;2023-02-28T09:55:48;4.30;;;2.30;;
68870;SDS011;55906;52.278;6.808;2023-02-28T09:58:20;4.28;;;2.65;;
68870;SDS011;55906;52.278;6.808;2023-02-28T10:00:56;4.20;;;2.47;;
68870;SDS011;55906;52.278;6.808;2023-02-28T10:03:31;4.17;;;2.20;;
68870;SDS011;55906;52.278;6.808;2023-02-28T10:06:06;4.15;;;2.40;;
68870;SDS011;55906;52.278;6.808;2023-02-28T10:08:38;4.47;;;2.30;;
68870;SDS011;55906;52.278;6.808;2023-02-28T10:11:11;3.83;;;2.22;;
68870;SDS011;55906;52.278;6.808;2023-02-28T10:13:45;3.83;;;2.25;;
68870;SDS011;55906;52.278;6.808;2023-02-28T10:16:20;4.43;;;2.07;;
68870;SDS011;55906;52.278;6.808;2023-02-28T10:18:54;4.15;;;2.20;;
68870;SDS011;55906;52.278;6.808;2023-02-28T10:21:26;4.40;;;2.20;;
68870;SDS011;55906;52.278;6.808;2023-02-28T10:23:58;3.78;;;2.35;;
68870;SDS011;55906;52.278;6.808;2023-02-28T10:26:29;4.40;;;2.38;;
68870;SDS011;55906;52.278;6.808;2023-02-28T10:28:58;4.17;;;2.47;;
68870;SDS011;55906;52.278;6.808;2023-02-28T10:31:25;4.55;;;2.40;;
68870;SDS011;55906;52.278;6.808;2023-02-28T10:33:53;3.92;;;2.13;;
68870;SDS011;55906;52.278;6.808;2023-02-28T10:36:20;3.95;;;2.17;;
68870;SDS011;55906;52.278;6.808;2023-02-28T10:38:47;3.40;;;1.90;;
68870;SDS011;55906;52.278;6.808;2023-02-28T10:41:16;4.67;;;2.03;;
68870;SDS011;55906;52.278;6.808;2023-02-28T10:43:53;3.85;;;2.25;;
68870;SDS011;55906;52.278;6.808;2023-02-28T10:46:39;3.45;;;1.88;;
68870;SDS011;55906;52.278;6.808;2023-02-28T10:49:11;3.70;;;1.90;;
68870;SDS011;55906;52.278;6.808;2023-02-28T10:51:40;3.38;;;1.88;;
68870;SDS011;55906;52.278;6.808;2023-02-28T10:54:14;3.50;;;1.67;;
68870;SDS011;55906;52.278;6.808;2023-02-28T10:56:42;3.58;;;1.80;;
68870;SDS011;55906;52.278;6.808;2023-02-28T10:59:23;4.13;;;2.00;;
68870;SDS011;55906;52.278;6.808;2023-02-28T11:01:54;4.55;;;1.73;;
68870;SDS011;55906;52.278;6.808;2023-02-28T11:04:33;4.72;;;2.05;;
68870;SDS011;55906;52.278;6.808;2023-02-28T11:07:05;3.30;;;1.73;;
68870;SDS011;55906;52.278;6.808;2023-02-28T11:09:44;4.28;;;1.80;;
68870;SDS011;55906;52.278;6.808;2023-02-28T11:12:19;3.83;;;1.75;;
68870;SDS011;55906;52.278;6.808;2023-02-28T11:14:48;3.95;;;2.03;;
68870;SDS011;55906;52.278;6.808;2023-02-28T11:17:19;3.70;;;1.90;;
68870;SDS011;55906;52.278;6.808;2023-02-28T11:19:49;4.10;;;2.50;;
68870;SDS011;55906;52.278;6.808;2023-02-28T11:22:19;5.15;;;2.10;;
68870;SDS011;55906;52.278;6.808;2023-02-28T11:24:50;5.07;;;2.55;;
68870;SDS011;55906;52.278;6.808;2023-02-28T11:27:26;4.25;;;2.50;;
68870;SDS011;55906;52.278;6.808;2023-02-28T11:30:23;5.63;;;3.08;;
68870;SDS011;55906;52.278;6.808;2023-02-28T11:32:52;5.63;;;2.43;;
68870;SDS011;55906;52.278;6.808;2023-02-28T11:35:21;6.13;;;3.35;;
68870;SDS011;55906;52.278;6.808;2023-02-28T11:37:51;5.07;;;2.55;;
68870;SDS011;55906;52.278;6.808;2023-02-28T11:40:19;4.15;;;2.13;;
68870;SDS011;55906;52.278;6.808;2023-02-28T11:42:54;8.73;;;4.00;;
68870;SDS011;55906;52.278;6.808;2023-02-28T11:45:36;5.60;;;2.87;;
68870;SDS011;55906;52.278;6.808;2023-02-28T11:48:11;10.88;;;3.60;;
68870;SDS011;55906;52.278;6.808;2023-02-28T11:50:48;8.35;;;4.03;;
68870;SDS011;55906;52.278;6.808;2023-02-28T11:53:27;5.45;;;2.45;;
68870;SDS011;55906;52.278;6.808;2023-02-28T11:56:06;4.65;;;2.50;;
68870;SDS011;55906;52.278;6.808;2023-02-28T11:58:42;4.43;;;2.60;;
68870;SDS011;55906;52.278;6.808;2023-02-28T12:01:22;3.95;;;1.90;;
68870;SDS011;55906;52.278;6.808;2023-02-28T12:04:03;3.97;;;2.10;;
68870;SDS011;55906;52.278;6.808;2023-02-28T12:06:45;4.03;;;2.42;;
68870;SDS011;55906;52.278;6.808;2023-02-28T12:09:23;5.07;;;2.80;;
68870;SDS011;55906;52.278;6.808;2023-02-28T12:12:12;4.87;;;2.57;;
68870;SDS011;55906;52.278;6.808;2023-02-28T12:14:56;4.88;;;2.58;;
68870;SDS011;55906;52.278;6.808;2023-02-28T12:17:46;4.68;;;2.30;;
68870;SDS011;55906;52.278;6.808;2023-02-28T12:20:25;4.63;;;2.22;;
68870;SDS011;55906;52.278;6.808;2023-02-28T12:23:04;5.07;;;2.30;;
68870;SDS011;55906;52.278;6.808;2023-02-28T12:25:50;5.03;;;2.30;;
68870;SDS011;55906;52.278;6.808;2023-02-28T12:28:27;4.70;;;2.47;;
68870;SDS011;55906;52.278;6.808;2023-02-28T12:30:59;5.10;;;2.50;;
68870;SDS011;55906;52.278;6.808;2023-02-28T12:33:32;4.63;;;2.13;;
68870;SDS011;55906;52.278;6.808;2023-02-28T12:36:03;4.00;;;1.92;;
68870;SDS011;55906;52.278;6.808;2023-02-28T12:38:37;4.10;;;2.07;;
68870;SDS011;55906;52.278;6.808;2023-02-28T12:41:10;3.75;;;1.90;;
68870;SDS011;55906;52.278;6.808;2023-02-28T12:43:40;6.65;;;2.08;;
68870;SDS011;55906;52.278;6.808;2023-02-28T12:46:11;4.70;;;2.10;;
68870;SDS011;55906;52.278;6.808;2023-02-28T12:48:42;4.57;;;2.10;;
68870;SDS011;55906;52.278;6.808;2023-02-28T12:51:11;6.37;;;2.70;;
68870;SDS011;55906;52.278;6.808;2023-02-28T12:53:45;4.20;;;1.90;;
68870;SDS011;55906;52.278;6.808;2023-02-28T12:56:19;3.97;;;2.10;;
68870;SDS011;55906;52.278;6.808;2023-02-28T12:58:54;3.63;;;1.73;;
68870;SDS011;55906;52.278;6.808;2023-02-28T13:01:40;4.35;;;2.20;;
68870;SDS011;55906;52.278;6.808;2023-02-28T13:04:27;3.70;;;1.97;;
68870;SDS011;55906;52.278;6.808;2023-02-28T13:07:12;4.15;;;2.42;;
68870;SDS011;55906;52.278;6.808;2023-02-28T13:09:59;4.35;;;2.42;;
68870;SDS011;55906;52.278;6.808;2023-02-28T13:12:28;4.93;;;2.40;;
68870;SDS011;55906;52.278;6.808;2023-02-28T13:15:01;4.45;;;2.60;;
68870;SDS011;55906;52.278;6.808;2023-02-28T13:17:37;4.00;;;1.93;;
68870;SDS011;55906;52.278;6.808;2023-02-28T13:20:13;5.82;;;3.10;;
68870;SDS011;55906;52.278;6.808;2023-02-28T13:22:42;5.10;;;2.58;;
68870;SDS011;55906;52.278;6.808;2023-02-28T13:28:56;9.93;;;5.15;;
68870;SDS011;55906;52.278;6.808;2023-02-28T13:31:33;7.23;;;3.53;;
68870;SDS011;55906;52.278;6.808;2023-02-28T13:34:38;8.77;;;4.28;;
68870;SDS011;55906;52.278;6.808;2023-02-28T13:40:22;5.55;;;2.30;;
68870;SDS011;55906;52.278;6.808;2023-02-28T13:42:54;4.93;;;2.20;;
68870;SDS011;55906;52.278;6.808;2023-02-28T13:45:31;4.33;;;2.00;;
68870;SDS011;55906;52.278;6.808;2023-02-28T13:48:36;3.40;;;1.92;;
68870;SDS011;55906;52.278;6.808;2023-02-28T13:54:05;3.83;;;1.90;;
68870;SDS011;55906;52.278;6.808;2023-02-28T13:56:45;3.60;;;1.70;;
68870;SDS011;55906;52.278;6.808;2023-02-28T13:59:20;4.27;;;1.60;;
68870;SDS011;55906;52.278;6.808;2023-02-28T14:02:02;3.22;;;1.60;;
68870;SDS011;55906;52.278;6.808;2023-02-28T14:04:48;3.72;;;1.67;;
68870;SDS011;55906;52.278;6.808;2023-02-28T14:07:25;4.35;;;1.58;;
68870;SDS011;55906;52.278;6.808;2023-02-28T14:09:58;3.55;;;1.60;;
68870;SDS011;55906;52.278;6.808;2023-02-28T14:15:27;3.85;;;1.90;;
68870;SDS011;55906;52.278;6.808;2023-02-28T14:18:18;3.75;;;1.70;;
68870;SDS011;55906;52.278;6.808;2023-02-28T14:20:49;4.10;;;1.83;;
68870;SDS011;55906;52.278;6.808;2023-02-28T14:23:23;3.50;;;1.90;;
68870;SDS011;55906;52.278;6.808;2023-02-28T14:26:00;4.23;;;1.80;;
68870;SDS011;55906;52.278;6.808;2023-02-28T14:28:43;4.07;;;1.75;;
68870;SDS011;55906;52.278;6.808;2023-02-28T14:31:23;3.83;;;1.90;;
68870;SDS011;55906;52.278;6.808;2023-02-28T14:34:12;3.53;;;1.88;;
68870;SDS011;55906;52.278;6.808;2023-02-28T14:36:51;5.10;;;1.90;;
68870;SDS011;55906;52.278;6.808;2023-02-28T14:39:20;3.40;;;1.60;;
68870;SDS011;55906;52.278;6.808;2023-02-28T14:41:49;3.65;;;1.50;;
68870;SDS011;55906;52.278;6.808;2023-02-28T14:44:17;3.10;;;1.35;;
68870;SDS011;55906;52.278;6.808;2023-02-28T14:46:46;3.40;;;1.60;;
68870;SDS011;55906;52.278;6.808;2023-02-28T14:49:17;3.17;;;1.50;;
68870;SDS011;55906;52.278;6.808;2023-02-28T14:51:47;3.10;;;1.30;;
68870;SDS011;55906;52.278;6.808;2023-02-28T14:54:15;3.13;;;1.50;;
68870;SDS011;55906;52.278;6.808;2023-02-28T14:56:51;4.03;;;1.75;;
68870;SDS011;55906;52.278;6.808;2023-02-28T14:59:22;3.50;;;1.70;;
68870;SDS011;55906;52.278;6.808;2023-02-28T15:01:51;5.13;;;1.83;;
68870;SDS011;55906;52.278;6.808;2023-02-28T15:04:21;3.57;;;1.73;;
68870;SDS011;55906;52.278;6.808;2023-02-28T15:07:06;4.93;;;2.50;;
68870;SDS011;55906;52.278;6.808;2023-02-28T15:09:33;5.90;;;2.22;;
68870;SDS011;55906;52.278;6.808;2023-02-28T15:12:00;3.75;;;2.10;;
68870;SDS011;55906;52.278;6.808;2023-02-28T15:14:28;4.13;;;2.00;;
68870;SDS011;55906;52.278;6.808;2023-02-28T15:16:56;4.23;;;1.73;;
68870;SDS011;55906;52.278;6.808;2023-02-28T15:19:27;3.70;;;1.67;;
68870;SDS011;55906;52.278;6.808;2023-02-28T15:21:57;3.70;;;2.00;;
68870;SDS011;55906;52.278;6.808;2023-02-28T15:24:30;3.40;;;1.75;;
68870;SDS011;55906;52.278;6.808;2023-02-28T15:27:03;3.45;;;1.83;;